Tampa, Florida
Traffic Map
Current Weather Conditions
Tampa, Florida
Broken Clouds
Broken Clouds
72°
Feels Like: 72°
Wind Chill: 72° Ceiling: 7500
Heat Index: 72° Visibility: 10mi
Dew Point: 67° Wind: 6mph
Humidity: 84% Direction: 360° (N)
Pressure: 29.91in Gusts: 0mph
Raw Report DataKTPA 310353Z 36005KT 10SM BKN075 BKN140 22/19 A2991 RMK AO2 SLP127 T02220194
Traffic Incident Summary
Active as of:
Severity:
Category:
InformationThere was an issue retrieving the traffic information for this location. Please try a different location or try again shortly.
Advertisements
Track Severe Weather on mobile